Edwards, New York
Current Conditions -  °F | °C
As of 9:58 AM on Wednesday 22 Oct 2014 (Local Time) from KGTB Reporting Station
Overcast Overcast  
Wind Chill: 37°   Ceiling: 1200
Heat Index: 44°   Visibility: 10mi
Dew Point: 39°   Wind: 14mph
Humidity: 84%   Direction: 40°NE
Pressure: 30.19"   Gusts: NA
Location:  44.32°N, 75.25°W
Report Text: KGTB 221358Z AUTO 04012KT 10SM OVC012 07/04 A3019 RMK AO2 SLP228 T00650039
Loading
Personal Weather Stations






























Interactive Weather Map
Tropical Storm Tracking
New forecast layout! Learn more

10-Day Weather Forecast

Advertisements
Track Severe Weather on mobile